createdAt,value
2017-09-02T00:00:12.935Z,6.10
2017-09-02T00:00:45.444Z,9.18
2017-09-02T00:01:18.198Z,6.30
2017-09-02T00:01:50.786Z,6.43
2017-09-02T00:02:23.372Z,5.55
2017-09-02T00:02:55.934Z,5.22
2017-09-02T00:03:28.453Z,6.45
2017-09-02T00:04:00.979Z,6.25
2017-09-02T00:04:33.498Z,5.68
2017-09-02T00:05:06.033Z,8.13
2017-09-02T00:05:38.647Z,7.55
2017-09-02T00:06:11.175Z,8.93
2017-09-02T00:06:43.700Z,8.23
2017-09-02T00:07:16.229Z,9.88
2017-09-02T00:07:48.744Z,12.05
2017-09-02T00:08:21.364Z,16.45
2017-09-02T00:08:53.889Z,16.80
2017-09-02T00:09:26.470Z,13.62
2017-09-02T00:09:58.998Z,15.23
2017-09-02T00:10:31.585Z,9.95
2017-09-02T00:11:04.143Z,12.30
2017-09-02T00:11:36.669Z,8.55
2017-09-02T00:12:09.245Z,6.50
2017-09-02T00:12:41.789Z,6.82
2017-09-02T00:13:15.069Z,6.05
2017-09-02T00:13:47.563Z,4.55
2017-09-02T00:14:20.291Z,5.05
2017-09-02T00:14:52.903Z,5.32
2017-09-02T00:15:25.433Z,4.75
2017-09-02T00:15:57.942Z,4.75
2017-09-02T00:16:30.604Z,5.45
2017-09-02T00:17:03.125Z,4.78
2017-09-02T00:17:35.655Z,4.72
2017-09-02T00:18:08.193Z,4.00
2017-09-02T00:18:41.047Z,5.90
2017-09-02T00:19:13.550Z,4.53
2017-09-02T00:19:46.108Z,3.80
2017-09-02T00:20:19.209Z,4.78
2017-09-02T00:20:52.025Z,4.35
2017-09-02T00:21:24.541Z,4.40
2017-09-02T00:21:58.063Z,4.70
2017-09-02T00:22:30.810Z,4.85
2017-09-02T00:23:04.130Z,4.53
2017-09-02T00:23:36.661Z,4.40
2017-09-02T00:24:09.953Z,4.30
2017-09-02T00:24:42.603Z,4.05
2017-09-02T00:25:15.132Z,4.40
2017-09-02T00:25:47.657Z,3.85
2017-09-02T00:26:20.201Z,4.80
2017-09-02T00:26:52.808Z,4.10
2017-09-02T00:27:25.334Z,3.97
2017-09-02T00:27:57.860Z,4.30
2017-09-02T00:28:30.397Z,4.15
2017-09-02T00:29:02.949Z,4.10
2017-09-02T00:29:35.459Z,3.42
2017-09-02T00:30:07.968Z,3.40
2017-09-02T00:30:40.512Z,3.80
2017-09-02T00:31:13.017Z,5.07
2017-09-02T00:31:45.546Z,4.93
2017-09-02T00:32:18.053Z,4.28
2017-09-02T00:32:50.581Z,8.65
2017-09-02T00:33:23.086Z,9.18
2017-09-02T00:33:55.627Z,9.45
2017-09-02T00:34:28.151Z,6.68
2017-09-02T00:35:00.701Z,5.72
2017-09-02T00:35:33.524Z,8.20
2017-09-02T00:36:06.066Z,6.22
2017-09-02T00:36:38.571Z,8.38
2017-09-02T00:37:11.100Z,5.65
2017-09-02T00:37:43.659Z,4.35
2017-09-02T00:38:16.222Z,4.03
2017-09-02T00:38:48.767Z,3.83
2017-09-02T00:39:21.300Z,4.10
2017-09-02T00:39:53.810Z,4.22
2017-09-02T00:40:26.359Z,4.10
2017-09-02T00:40:58.870Z,4.55
2017-09-02T00:41:31.381Z,4.75
2017-09-02T00:42:03.885Z,4.10
2017-09-02T00:42:36.410Z,4.10
2017-09-02T00:43:08.945Z,4.45
2017-09-02T00:43:41.515Z,4.18
2017-09-02T00:44:14.024Z,3.78
2017-09-02T00:44:46.530Z,3.80
2017-09-02T00:45:19.054Z,4.75
2017-09-02T00:45:51.577Z,4.12
2017-09-02T00:46:24.099Z,4.45
2017-09-02T00:46:56.643Z,4.90
2017-09-02T00:47:29.169Z,4.28
2017-09-02T00:48:01.686Z,3.83
2017-09-02T00:48:34.191Z,4.28
2017-09-02T00:49:06.707Z,4.57
2017-09-02T00:49:39.220Z,5.05
2017-09-02T00:50:11.727Z,4.80
2017-09-02T00:50:44.241Z,3.58
2017-09-02T00:51:16.745Z,4.12
2017-09-02T00:51:49.283Z,3.92
2017-09-02T00:52:21.823Z,3.55
2017-09-02T00:52:54.340Z,3.90
2017-09-02T00:53:26.867Z,3.70
2017-09-02T00:53:59.397Z,3.92
2017-09-02T00:54:31.950Z,3.70
2017-09-02T00:55:04.474Z,3.70
2017-09-02T00:55:36.997Z,3.42
2017-09-02T00:56:09.517Z,3.83
2017-09-02T00:56:42.044Z,3.60
2017-09-02T00:57:14.612Z,4.12
2017-09-02T00:57:47.126Z,3.90
2017-09-02T00:58:19.631Z,3.85
2017-09-02T00:58:52.178Z,4.18
2017-09-02T00:59:24.701Z,3.55
2017-09-02T00:59:57.236Z,4.05
2017-09-02T01:00:29.764Z,4.20
2017-09-02T01:01:02.273Z,3.95
2017-09-02T01:01:34.838Z,3.50
2017-09-02T01:02:07.368Z,3.72
2017-09-02T01:02:39.880Z,3.50
2017-09-02T01:03:12.378Z,3.67
2017-09-02T01:03:44.892Z,3.40
2017-09-02T01:04:17.416Z,3.65
2017-09-02T01:04:49.955Z,3.65
2017-09-02T01:05:22.522Z,3.65
2017-09-02T01:05:55.048Z,3.75
2017-09-02T01:06:27.568Z,3.03
2017-09-02T01:07:00.092Z,3.60
2017-09-02T01:07:32.615Z,4.10
2017-09-02T01:08:05.154Z,3.90
2017-09-02T01:08:37.674Z,4.05
2017-09-02T01:09:10.203Z,3.30
2017-09-02T01:09:42.708Z,4.05
2017-09-02T01:10:15.226Z,4.03
2017-09-02T01:10:47.742Z,3.67
2017-09-02T01:11:20.260Z,4.32
2017-09-02T01:11:52.789Z,3.65
2017-09-02T01:12:25.318Z,3.40
2017-09-02T01:12:57.837Z,3.45
2017-09-02T01:13:30.354Z,3.58
2017-09-02T01:14:02.873Z,3.65
2017-09-02T01:14:35.393Z,3.65
2017-09-02T01:15:07.913Z,3.50
2017-09-02T01:15:40.424Z,3.45
2017-09-02T01:16:12.952Z,4.18
2017-09-02T01:16:45.472Z,3.67
2017-09-02T01:17:17.979Z,3.78
2017-09-02T01:17:50.498Z,3.92
2017-09-02T01:18:23.009Z,3.65
2017-09-02T01:18:55.534Z,3.78
2017-09-02T01:19:28.058Z,3.42
2017-09-02T01:20:00.554Z,4.40
2017-09-02T01:20:33.082Z,3.72
2017-09-02T01:21:05.591Z,3.50
2017-09-02T01:21:38.153Z,3.90
2017-09-02T01:22:10.694Z,3.90
2017-09-02T01:22:43.257Z,3.95
2017-09-02T01:23:15.768Z,3.50
2017-09-02T01:23:48.283Z,3.53
2017-09-02T01:24:20.817Z,3.40
2017-09-02T01:24:53.340Z,3.78
2017-09-02T01:25:25.873Z,4.20
2017-09-02T01:25:58.392Z,3.50
2017-09-02T01:26:30.915Z,3.40
2017-09-02T01:27:03.468Z,3.83
2017-09-02T01:27:35.996Z,3.78
2017-09-02T01:28:08.532Z,3.50
2017-09-02T01:28:41.056Z,3.65
2017-09-02T01:29:13.560Z,3.70
2017-09-02T01:29:46.069Z,3.80
2017-09-02T01:30:24.295Z,3.83
2017-09-02T01:30:56.834Z,4.15
2017-09-02T01:31:29.356Z,4.07
2017-09-02T01:32:01.875Z,3.50
2017-09-02T01:32:34.429Z,3.40
2017-09-02T01:33:06.954Z,3.30
2017-09-02T01:33:39.450Z,3.35
2017-09-02T01:34:11.963Z,3.50
2017-09-02T01:34:44.479Z,3.85
2017-09-02T01:35:16.994Z,3.60
2017-09-02T01:35:49.499Z,3.47
2017-09-02T01:36:22.014Z,3.50
2017-09-02T01:36:54.529Z,4.00
2017-09-02T01:37:27.057Z,3.92
2017-09-02T01:38:00.374Z,4.00
2017-09-02T01:38:32.892Z,3.35
2017-09-02T01:39:05.418Z,3.58
2017-09-02T01:39:37.946Z,3.30
2017-09-02T01:40:10.454Z,4.32
2017-09-02T01:40:42.965Z,4.05
2017-09-02T01:41:15.474Z,4.00
2017-09-02T01:41:47.993Z,4.05
2017-09-02T01:42:20.503Z,3.80
2017-09-02T01:42:53.041Z,3.70
2017-09-02T01:43:25.557Z,3.53
2017-09-02T01:43:58.093Z,3.75
2017-09-02T01:44:30.606Z,4.05
2017-09-02T01:45:03.116Z,3.90
2017-09-02T01:45:35.634Z,3.42
2017-09-02T01:46:08.142Z,3.87
2017-09-02T01:46:40.678Z,4.10
2017-09-02T01:47:13.200Z,3.78
2017-09-02T01:47:45.736Z,3.83
2017-09-02T01:48:18.252Z,4.05
2017-09-02T01:48:50.810Z,4.05
2017-09-02T01:49:23.413Z,4.05
2017-09-02T01:49:56.000Z,3.85
2017-09-02T01:50:28.519Z,3.83
2017-09-02T01:51:01.030Z,4.30
2017-09-02T01:51:33.547Z,4.60
2017-09-02T01:52:06.094Z,4.25
2017-09-02T01:52:38.631Z,4.35
2017-09-02T01:53:11.172Z,4.25
2017-09-02T01:53:43.699Z,4.20
2017-09-02T01:54:16.241Z,4.55
2017-09-02T01:54:48.755Z,4.00
2017-09-02T01:55:21.285Z,4.40
2017-09-02T01:55:53.830Z,4.10
2017-09-02T01:56:26.330Z,4.68
2017-09-02T01:56:58.848Z,4.00
2017-09-02T01:57:31.475Z,3.45
2017-09-02T01:58:03.988Z,4.03
2017-09-02T01:58:36.533Z,4.40
2017-09-02T01:59:09.056Z,3.62
2017-09-02T01:59:42.380Z,4.18
2017-09-02T02:00:14.913Z,4.10
2017-09-02T02:00:47.426Z,3.75
2017-09-02T02:01:19.954Z,4.05
2017-09-02T02:01:52.920Z,4.10
2017-09-02T02:02:25.441Z,4.43
2017-09-02T02:02:57.965Z,4.30
2017-09-02T02:03:30.462Z,4.40
2017-09-02T02:04:02.976Z,4.45
2017-09-02T02:04:36.298Z,4.35
2017-09-02T02:05:08.827Z,4.30
2017-09-02T02:05:41.348Z,4.28
2017-09-02T02:06:13.883Z,3.55
2017-09-02T02:06:46.388Z,4.25
2017-09-02T02:07:18.891Z,3.78
2017-09-02T02:07:51.406Z,4.60
2017-09-02T02:08:23.920Z,3.83
2017-09-02T02:08:56.447Z,4.00
2017-09-02T02:09:28.985Z,4.30
2017-09-02T02:10:01.517Z,3.85
2017-09-02T02:10:34.057Z,3.80
2017-09-02T02:11:06.573Z,4.07
2017-09-02T02:11:39.091Z,3.85
2017-09-02T02:12:11.608Z,4.47
2017-09-02T02:12:44.106Z,4.05
2017-09-02T02:13:16.636Z,3.72
2017-09-02T02:13:49.153Z,4.68
2017-09-02T02:14:21.664Z,4.10
2017-09-02T02:14:54.195Z,4.00
2017-09-02T02:15:26.697Z,4.22
2017-09-02T02:15:59.224Z,4.37
2017-09-02T02:16:31.743Z,4.45
2017-09-02T02:17:04.258Z,3.95
2017-09-02T02:17:36.785Z,4.20
2017-09-02T02:18:09.300Z,4.00
2017-09-02T02:18:41.829Z,4.15
2017-09-02T02:19:14.355Z,4.10
2017-09-02T02:19:46.857Z,3.53
2017-09-02T02:20:19.377Z,3.92
2017-09-02T02:20:51.900Z,3.90
2017-09-02T02:21:24.436Z,3.75
2017-09-02T02:21:56.983Z,4.40
2017-09-02T02:22:29.504Z,4.45
2017-09-02T02:23:02.044Z,4.20
2017-09-02T02:23:34.595Z,3.95
2017-09-02T02:24:07.115Z,4.65
2017-09-02T02:24:39.628Z,4.62
2017-09-02T02:25:12.144Z,3.80
2017-09-02T02:25:44.659Z,4.00
2017-09-02T02:26:17.165Z,4.00
2017-09-02T02:26:49.774Z,3.40
2017-09-02T02:27:22.311Z,3.80
2017-09-02T02:27:54.828Z,4.03
2017-09-02T02:28:27.329Z,3.80
2017-09-02T02:28:59.869Z,3.80
2017-09-02T02:29:32.391Z,3.22
2017-09-02T02:30:04.903Z,4.22
2017-09-02T02:30:37.412Z,3.85
2017-09-02T02:31:09.948Z,3.90
2017-09-02T02:31:42.464Z,3.87
2017-09-02T02:32:15.001Z,3.95
2017-09-02T02:32:47.541Z,4.12
2017-09-02T02:33:20.050Z,3.20
2017-09-02T02:33:52.566Z,4.03
2017-09-02T02:34:25.070Z,4.15
2017-09-02T02:34:57.581Z,3.70
2017-09-02T02:35:30.090Z,4.30
2017-09-02T02:36:02.593Z,3.87
2017-09-02T02:36:35.115Z,3.40
2017-09-02T02:37:07.644Z,3.72
2017-09-02T02:37:40.171Z,3.83
2017-09-02T02:38:12.686Z,3.40
2017-09-02T02:38:45.211Z,4.10
2017-09-02T02:39:17.737Z,4.05
2017-09-02T02:39:50.242Z,4.07
2017-09-02T02:40:22.759Z,3.97
2017-09-02T02:40:55.275Z,3.55
2017-09-02T02:41:27.784Z,4.93
2017-09-02T02:42:00.297Z,3.85
2017-09-02T02:42:32.824Z,4.00
2017-09-02T02:43:05.339Z,3.60
2017-09-02T02:43:37.856Z,3.92
2017-09-02T02:44:10.391Z,3.80
2017-09-02T02:44:42.904Z,4.10
2017-09-02T02:45:15.414Z,4.22
2017-09-02T02:45:47.914Z,4.10
2017-09-02T02:46:20.454Z,4.25
2017-09-02T02:46:52.959Z,4.62
2017-09-02T02:47:25.502Z,4.55
2017-09-02T02:47:58.020Z,4.20
2017-09-02T02:48:30.586Z,4.60
2017-09-02T02:49:03.936Z,4.05
2017-09-02T02:49:36.439Z,4.28
2017-09-02T02:50:08.969Z,3.90
2017-09-02T02:50:41.498Z,4.28
2017-09-02T02:51:14.022Z,4.55
2017-09-02T02:51:46.541Z,3.60
2017-09-02T02:52:19.076Z,4.40
2017-09-02T02:52:51.596Z,3.92
2017-09-02T02:53:24.128Z,4.45
2017-09-02T02:53:56.661Z,4.07
2017-09-02T02:54:29.165Z,4.30
2017-09-02T02:55:01.675Z,4.53
2017-09-02T02:55:34.203Z,4.50
2017-09-02T02:56:06.728Z,4.70
2017-09-02T02:56:39.279Z,4.40
2017-09-02T02:57:11.784Z,4.03
2017-09-02T02:57:44.322Z,3.92
2017-09-02T02:58:16.867Z,3.80
2017-09-02T02:58:49.375Z,4.50
2017-09-02T02:59:21.903Z,4.05
2017-09-02T02:59:54.436Z,4.55
2017-09-02T03:00:26.967Z,4.32
2017-09-02T03:00:59.490Z,4.50
2017-09-02T03:01:32.029Z,3.92
2017-09-02T03:02:04.554Z,4.50
2017-09-02T03:02:37.070Z,4.40
2017-09-02T03:03:09.583Z,4.43
2017-09-02T03:03:42.112Z,4.72
2017-09-02T03:04:15.412Z,4.28
2017-09-02T03:04:47.963Z,4.35
2017-09-02T03:05:20.474Z,4.25
2017-09-02T03:05:53.004Z,5.07
2017-09-02T03:06:25.522Z,3.85
2017-09-02T03:06:58.027Z,4.25
2017-09-02T03:07:30.562Z,4.80
2017-09-02T03:08:03.086Z,3.80
2017-09-02T03:08:35.679Z,4.70
2017-09-02T03:09:08.193Z,3.95
2017-09-02T03:09:40.780Z,4.30
2017-09-02T03:10:13.329Z,4.18
2017-09-02T03:10:45.844Z,4.80
2017-09-02T03:11:18.367Z,4.37
2017-09-02T03:11:50.898Z,4.50
2017-09-02T03:12:23.436Z,3.83
2017-09-02T03:12:55.939Z,4.90
2017-09-02T03:13:28.462Z,3.70
2017-09-02T03:14:01.000Z,4.28
2017-09-02T03:14:33.536Z,4.80
2017-09-02T03:15:06.087Z,3.78
2017-09-02T03:15:38.684Z,4.40
2017-09-02T03:16:11.203Z,3.95
2017-09-02T03:16:43.737Z,4.43
2017-09-02T03:17:16.242Z,4.03
2017-09-02T03:17:48.749Z,4.03
2017-09-02T03:18:21.295Z,3.95
2017-09-02T03:18:53.816Z,4.07
2017-09-02T03:19:26.327Z,4.32
2017-09-02T03:19:58.850Z,3.87
2017-09-02T03:20:31.371Z,3.95
2017-09-02T03:21:03.899Z,4.80
2017-09-02T03:21:36.411Z,3.80
2017-09-02T03:22:08.925Z,4.68
2017-09-02T03:22:41.449Z,4.03
2017-09-02T03:23:13.965Z,4.45
2017-09-02T03:23:46.474Z,3.92
2017-09-02T03:24:18.989Z,3.87
2017-09-02T03:24:51.493Z,3.83
2017-09-02T03:25:24.022Z,4.03
2017-09-02T03:25:56.558Z,3.97
2017-09-02T03:26:29.100Z,3.80
2017-09-02T03:27:01.611Z,4.60
2017-09-02T03:27:34.126Z,4.37
2017-09-02T03:28:06.656Z,3.95
2017-09-02T03:28:39.200Z,4.22
2017-09-02T03:29:11.710Z,4.10
2017-09-02T03:29:44.264Z,3.97
2017-09-02T03:30:16.792Z,4.05
2017-09-02T03:30:49.308Z,3.80
2017-09-02T03:31:21.822Z,4.32
2017-09-02T03:31:54.387Z,3.50
2017-09-02T03:32:26.916Z,4.55
2017-09-02T03:32:59.436Z,4.70
2017-09-02T03:33:32.718Z,4.00
2017-09-02T03:34:05.259Z,4.30
2017-09-02T03:34:37.796Z,4.22
2017-09-02T03:35:10.303Z,3.40
2017-09-02T03:35:42.819Z,4.07
2017-09-02T03:36:15.362Z,3.60
2017-09-02T03:36:48.221Z,3.65
2017-09-02T03:37:20.762Z,4.05
2017-09-02T03:37:53.288Z,4.40
2017-09-02T03:38:25.781Z,3.97
2017-09-02T03:38:58.306Z,4.43
2017-09-02T03:39:30.912Z,3.47
2017-09-02T03:40:03.448Z,4.25
2017-09-02T03:40:35.976Z,4.05
2017-09-02T03:41:08.483Z,3.50
2017-09-02T03:41:41.004Z,3.53
2017-09-02T03:42:13.530Z,4.15
2017-09-02T03:42:46.092Z,3.70
2017-09-02T03:43:18.615Z,3.67
2017-09-02T03:43:51.126Z,3.85
2017-09-02T03:44:23.641Z,4.57
2017-09-02T03:44:56.170Z,4.30
2017-09-02T03:45:28.700Z,4.22
2017-09-02T03:46:01.213Z,4.00
2017-09-02T03:46:33.727Z,4.10
2017-09-02T03:47:06.256Z,4.45
2017-09-02T03:47:38.775Z,4.03
2017-09-02T03:48:11.372Z,4.10
2017-09-02T03:48:43.900Z,4.40
2017-09-02T03:49:16.429Z,4.32
2017-09-02T03:49:48.944Z,4.00
2017-09-02T03:50:21.493Z,3.37
2017-09-02T03:50:54.008Z,3.75
2017-09-02T03:51:26.519Z,3.90
2017-09-02T03:51:59.050Z,4.10
2017-09-02T03:52:31.569Z,4.32
2017-09-02T03:53:04.091Z,4.75
2017-09-02T03:53:36.641Z,4.30
2017-09-02T03:54:09.182Z,4.45
2017-09-02T03:54:41.699Z,3.80
2017-09-02T03:55:14.231Z,4.12
2017-09-02T03:55:46.741Z,4.43
2017-09-02T03:56:19.265Z,4.25
2017-09-02T03:56:51.791Z,4.70
2017-09-02T03:57:24.302Z,4.53
2017-09-02T03:57:56.834Z,4.10
2017-09-02T03:58:29.351Z,4.85
2017-09-02T03:59:01.878Z,4.53
2017-09-02T03:59:34.391Z,4.15
2017-09-02T04:00:06.926Z,4.30
2017-09-02T04:00:39.453Z,4.50
2017-09-02T04:01:11.982Z,4.40
2017-09-02T04:01:44.506Z,4.43
2017-09-02T04:02:17.028Z,4.43
2017-09-02T04:02:49.572Z,3.87
2017-09-02T04:03:22.118Z,4.68
2017-09-02T04:03:54.639Z,4.50
2017-09-02T04:04:27.193Z,4.05
2017-09-02T04:04:59.703Z,4.37
2017-09-02T04:05:32.273Z,4.65
2017-09-02T04:06:04.792Z,4.40
2017-09-02T04:06:37.327Z,4.40
2017-09-02T04:07:09.850Z,4.82
2017-09-02T04:07:42.392Z,4.32
2017-09-02T04:08:14.927Z,4.30
2017-09-02T04:08:47.430Z,4.12
2017-09-02T04:09:19.969Z,4.87
2017-09-02T04:09:52.490Z,4.32
2017-09-02T04:10:25.008Z,4.65
2017-09-02T04:10:57.545Z,4.47
2017-09-02T04:11:30.039Z,4.60
2017-09-02T04:12:02.551Z,4.50
2017-09-02T04:12:35.052Z,3.97
2017-09-02T04:13:07.605Z,4.30
2017-09-02T04:13:40.121Z,4.80
2017-09-02T04:14:12.634Z,4.20
2017-09-02T04:14:45.193Z,4.87
2017-09-02T04:15:17.742Z,4.03
2017-09-02T04:15:50.249Z,4.28
2017-09-02T04:16:22.755Z,3.92
2017-09-02T04:16:55.308Z,4.72
2017-09-02T04:17:27.827Z,5.05
2017-09-02T04:18:00.348Z,4.70
2017-09-02T04:18:32.879Z,4.30
2017-09-02T04:19:05.382Z,4.50
2017-09-02T04:19:37.916Z,3.75
2017-09-02T04:20:10.427Z,4.20
2017-09-02T04:20:42.950Z,4.07
2017-09-02T04:21:15.460Z,4.03
2017-09-02T04:21:47.978Z,4.15
2017-09-02T04:22:20.503Z,4.47
2017-09-02T04:22:52.998Z,4.90
2017-09-02T04:23:25.508Z,4.40
2017-09-02T04:23:58.034Z,4.65
2017-09-02T04:24:30.618Z,4.68
2017-09-02T04:25:03.139Z,4.57
2017-09-02T04:25:35.659Z,4.10
2017-09-02T04:26:08.194Z,4.55
2017-09-02T04:26:40.724Z,4.55
2017-09-02T04:27:13.249Z,4.85
2017-09-02T04:27:45.762Z,3.95
2017-09-02T04:28:18.300Z,5.10
2017-09-02T04:28:50.813Z,4.20
2017-09-02T04:29:23.358Z,4.45
2017-09-02T04:29:55.866Z,4.80
2017-09-02T04:30:28.409Z,4.60
2017-09-02T04:31:00.951Z,4.20
2017-09-02T04:31:33.511Z,4.78
2017-09-02T04:32:06.033Z,5.00
2017-09-02T04:32:38.564Z,5.22
2017-09-02T04:33:11.088Z,4.80
2017-09-02T04:33:43.617Z,5.43
2017-09-02T04:34:16.150Z,5.10
2017-09-02T04:34:48.663Z,4.95
2017-09-02T04:35:21.190Z,5.00
2017-09-02T04:35:53.714Z,5.35
2017-09-02T04:36:26.255Z,4.95
2017-09-02T04:36:58.848Z,5.00
2017-09-02T04:37:31.366Z,4.93
2017-09-02T04:38:03.940Z,5.25
2017-09-02T04:38:36.452Z,4.40
2017-09-02T04:39:08.958Z,5.10
2017-09-02T04:39:41.478Z,5.22
2017-09-02T04:40:14.009Z,5.78
2017-09-02T04:40:46.541Z,4.87
2017-09-02T04:41:19.064Z,5.62
2017-09-02T04:41:51.583Z,4.72
2017-09-02T04:42:24.112Z,5.00
2017-09-02T04:42:56.624Z,4.45
2017-09-02T04:43:29.149Z,5.03
2017-09-02T04:44:01.732Z,4.20
2017-09-02T04:44:34.240Z,5.53
2017-09-02T04:45:06.751Z,5.43
2017-09-02T04:45:39.267Z,5.40
2017-09-02T04:46:11.777Z,5.18
2017-09-02T04:46:44.299Z,5.28
2017-09-02T04:47:17.207Z,4.97
2017-09-02T04:47:49.746Z,6.10
2017-09-02T04:48:22.260Z,6.30
2017-09-02T04:48:54.805Z,5.05
2017-09-02T04:49:27.334Z,5.22
2017-09-02T04:50:00.619Z,6.07
2017-09-02T04:50:33.145Z,5.20
2017-09-02T04:51:05.643Z,5.53
2017-09-02T04:51:38.153Z,5.43
2017-09-02T04:52:10.667Z,5.75
2017-09-02T04:52:43.176Z,5.12
2017-09-02T04:53:15.710Z,4.75
2017-09-02T04:53:48.234Z,5.05
2017-09-02T04:54:20.921Z,5.62
2017-09-02T04:54:53.440Z,5.70
2017-09-02T04:55:25.966Z,5.50
2017-09-02T04:55:58.485Z,5.25
2017-09-02T04:56:30.997Z,5.22
2017-09-02T04:57:03.527Z,5.25
2017-09-02T04:57:36.048Z,4.62
2017-09-02T04:58:08.587Z,4.68
2017-09-02T04:58:41.140Z,5.10
2017-09-02T04:59:13.653Z,5.40
2017-09-02T04:59:46.193Z,5.25
2017-09-02T05:00:18.710Z,5.65
2017-09-02T05:00:51.230Z,5.10
2017-09-02T05:01:23.736Z,5.35
2017-09-02T05:01:56.670Z,7.80
2017-09-02T05:02:29.184Z,6.97
2017-09-02T05:03:01.704Z,6.20
2017-09-02T05:03:34.269Z,6.00
2017-09-02T05:04:06.803Z,5.47
2017-09-02T05:04:39.341Z,5.43
2017-09-02T05:05:11.865Z,5.70
2017-09-02T05:05:44.392Z,4.82
2017-09-02T05:06:16.917Z,5.20
2017-09-02T05:06:49.432Z,4.80
2017-09-02T05:07:21.964Z,4.60
2017-09-02T05:07:54.495Z,5.30
2017-09-02T05:08:27.006Z,5.43
2017-09-02T05:08:59.526Z,5.45
2017-09-02T05:09:32.052Z,5.03
2017-09-02T05:10:04.559Z,5.12
2017-09-02T05:10:37.073Z,5.50
2017-09-02T05:11:09.592Z,4.53
2017-09-02T05:11:42.105Z,4.97
2017-09-02T05:12:14.646Z,4.60
2017-09-02T05:12:47.175Z,4.60
2017-09-02T05:13:19.683Z,5.32
2017-09-02T05:13:52.202Z,4.62
2017-09-02T05:14:24.707Z,5.18
2017-09-02T05:14:57.256Z,5.00
2017-09-02T05:15:29.786Z,4.72
2017-09-02T05:16:02.303Z,4.78
2017-09-02T05:16:34.849Z,4.35
2017-09-02T05:17:07.369Z,4.95
2017-09-02T05:17:39.895Z,5.30
2017-09-02T05:18:12.410Z,5.00
2017-09-02T05:18:44.915Z,4.85
2017-09-02T05:19:17.441Z,4.70
2017-09-02T05:19:49.977Z,5.40
2017-09-02T05:20:22.528Z,5.10
2017-09-02T05:20:55.041Z,4.80
2017-09-02T05:21:27.598Z,4.80
2017-09-02T05:22:00.882Z,4.97
2017-09-02T05:22:33.397Z,5.20
2017-09-02T05:23:05.917Z,5.90
2017-09-02T05:23:38.456Z,5.15
2017-09-02T05:24:10.999Z,4.30
2017-09-02T05:24:43.517Z,5.60
2017-09-02T05:25:16.028Z,4.80
2017-09-02T05:25:48.554Z,4.87
2017-09-02T05:26:21.103Z,4.85
2017-09-02T05:26:53.630Z,5.45
2017-09-02T05:27:26.178Z,5.40
2017-09-02T05:27:58.687Z,5.30
2017-09-02T05:28:31.201Z,5.82
2017-09-02T05:38:49.072Z,4.65
2017-09-02T05:52:21.977Z,5.00
2017-09-02T06:05:55.033Z,4.20
2017-09-02T06:06:27.939Z,4.40
2017-09-02T06:07:00.701Z,5.25
2017-09-02T06:07:33.551Z,4.80
2017-09-02T06:08:06.102Z,4.70
2017-09-02T06:08:38.941Z,4.70
2017-09-02T06:09:11.458Z,5.00
2017-09-02T06:09:44.283Z,4.75
2017-09-02T06:20:01.860Z,5.32
2017-09-02T06:20:34.669Z,5.25
2017-09-02T06:21:07.214Z,4.93
2017-09-02T06:34:40.598Z,3.50
2017-09-02T06:35:13.120Z,3.17
2017-09-02T06:35:45.932Z,3.85
2017-09-02T06:36:18.475Z,4.20
2017-09-02T06:36:51.792Z,3.75
2017-09-02T06:37:25.362Z,3.90
2017-09-02T06:37:58.208Z,3.85
2017-09-02T06:38:31.007Z,3.30
2017-09-02T06:39:03.912Z,4.07
2017-09-02T06:39:36.425Z,3.92
2017-09-02T06:40:08.978Z,3.83
2017-09-02T06:40:41.677Z,3.87
2017-09-02T06:41:15.066Z,3.60
2017-09-02T06:41:47.570Z,3.78
2017-09-02T06:42:20.416Z,3.80
2017-09-02T06:42:53.787Z,3.87
2017-09-02T06:56:26.364Z,2.40
2017-09-02T06:57:01.951Z,3.10
2017-09-02T06:57:35.986Z,4.20
2017-09-02T06:58:08.877Z,3.10
2017-09-02T07:11:42.497Z,2.95
2017-09-02T07:12:15.904Z,3.05
2017-09-02T07:12:48.425Z,3.40
2017-09-02T07:13:21.296Z,3.65
2017-09-02T07:13:54.047Z,3.42
2017-09-02T07:24:12.558Z,2.85
2017-09-02T07:24:46.171Z,3.05
2017-09-02T07:35:04.120Z,2.50
2017-09-02T07:35:37.604Z,3.37
2017-09-02T07:45:55.551Z,2.25
2017-09-02T07:46:28.101Z,2.12
2017-09-02T07:47:00.636Z,2.97
2017-09-02T07:47:34.898Z,3.45
2017-09-02T07:48:07.468Z,3.87
2017-09-02T07:48:40.296Z,3.08
2017-09-02T07:49:12.819Z,3.28
2017-09-02T08:02:46.680Z,1.80
2017-09-02T08:03:19.198Z,2.50
2017-09-02T08:03:53.144Z,2.80
2017-09-02T08:04:26.614Z,2.47
2017-09-02T08:04:59.154Z,2.58
2017-09-02T08:05:31.665Z,2.58
2017-09-02T08:06:04.498Z,3.10
2017-09-02T08:06:37.015Z,3.00
2017-09-02T08:07:09.546Z,2.65
2017-09-02T08:07:42.416Z,2.72
2017-09-02T08:08:15.295Z,2.15
2017-09-02T08:08:48.604Z,2.05
2017-09-02T08:09:21.509Z,2.37
2017-09-02T08:09:54.079Z,2.60
2017-09-02T08:10:28.685Z,3.22
2017-09-02T08:11:01.215Z,2.72
2017-09-02T08:11:33.738Z,2.03
2017-09-02T08:12:06.734Z,2.40
2017-09-02T08:12:39.244Z,2.92
2017-09-02T08:13:12.239Z,2.28
2017-09-02T08:13:45.770Z,2.42
2017-09-02T08:14:18.403Z,2.28
2017-09-02T08:14:52.279Z,2.10
2017-09-02T08:15:25.015Z,2.12
2017-09-02T08:15:57.750Z,1.77
2017-09-02T08:16:31.344Z,2.20
2017-09-02T08:17:04.503Z,4.80
2017-09-02T08:17:37.277Z,6.12
2017-09-02T08:18:10.165Z,5.80
2017-09-02T08:18:42.732Z,4.40
2017-09-02T08:19:16.323Z,3.25
2017-09-02T08:19:49.124Z,3.15
2017-09-02T08:20:22.074Z,3.00
2017-09-02T08:20:55.090Z,3.35
2017-09-02T08:21:28.020Z,2.60
2017-09-02T08:22:00.838Z,2.87
2017-09-02T08:22:34.152Z,2.78
2017-09-02T08:23:07.557Z,2.35
2017-09-02T08:23:40.108Z,2.72
2017-09-02T08:24:12.647Z,2.22
2017-09-02T08:24:45.554Z,2.45
2017-09-02T08:25:18.929Z,2.33
2017-09-02T08:25:51.441Z,2.00
2017-09-02T08:27:01.985Z,2.50
2017-09-02T08:27:34.503Z,2.37
2017-09-02T08:28:07.587Z,2.42
2017-09-02T08:28:40.150Z,3.37
2017-09-02T08:29:12.717Z,2.92
2017-09-02T08:29:45.919Z,2.80
2017-09-02T08:30:18.441Z,2.40
2017-09-02T08:30:51.329Z,2.30
2017-09-02T08:31:24.132Z,2.10
2017-09-02T08:31:57.423Z,2.70
2017-09-02T08:32:30.400Z,2.90
2017-09-02T08:33:03.242Z,2.83
2017-09-02T08:33:35.882Z,3.30
2017-09-02T08:34:09.256Z,3.08
2017-09-02T08:34:42.330Z,3.20
2017-09-02T08:35:14.890Z,3.33
2017-09-02T08:35:47.457Z,2.95
2017-09-02T08:36:21.485Z,3.20
2017-09-02T08:36:55.951Z,2.50
2017-09-02T08:47:14.370Z,2.78
2017-09-02T08:57:31.949Z,2.10
2017-09-02T08:58:05.263Z,2.22
2017-09-02T08:58:37.787Z,2.28
2017-09-02T08:59:10.633Z,2.25
2017-09-02T09:12:43.603Z,1.60
2017-09-02T09:13:16.121Z,1.80
2017-09-02T09:13:49.514Z,2.30
2017-09-02T09:14:22.058Z,2.50
2017-09-02T09:14:54.609Z,1.80
2017-09-02T09:15:28.342Z,1.98
2017-09-02T09:16:01.483Z,2.20
2017-09-02T09:16:34.327Z,2.22
2017-09-02T09:17:07.755Z,2.30
2017-09-02T09:17:40.264Z,1.90
2017-09-02T09:18:12.832Z,2.72
2017-09-02T09:18:45.694Z,2.20
2017-09-02T09:19:18.237Z,2.22
2017-09-02T09:19:50.759Z,2.30
2017-09-02T09:20:23.404Z,2.20
2017-09-02T09:33:56.030Z,1.75
2017-09-02T09:34:28.621Z,1.60
2017-09-02T09:35:02.058Z,2.05
2017-09-02T09:35:34.867Z,2.15
2017-09-02T09:49:07.462Z,2.05
2017-09-02T09:49:40.685Z,1.90
2017-09-02T09:50:13.239Z,1.90
2017-09-02T09:50:46.022Z,1.58
2017-09-02T09:51:18.978Z,2.25
2017-09-02T09:51:51.499Z,2.00
2017-09-02T09:52:24.016Z,2.30
2017-09-02T10:02:42.981Z,1.67
2017-09-02T10:03:15.886Z,1.83
2017-09-02T10:03:49.050Z,1.60
2017-09-02T10:04:21.793Z,1.75
2017-09-02T10:17:54.361Z,1.75
2017-09-02T10:18:28.620Z,2.20
2017-09-02T10:19:01.375Z,1.75
2017-09-02T10:19:34.995Z,2.00
2017-09-02T10:29:55.341Z,2.05
2017-09-02T10:30:29.090Z,1.77
2017-09-02T10:31:02.891Z,2.10
2017-09-02T10:31:35.735Z,1.70
2017-09-02T10:45:08.340Z,1.90
2017-09-02T10:45:42.546Z,2.40
2017-09-02T10:46:16.402Z,1.80
2017-09-02T10:46:48.981Z,1.85
2017-09-02T10:47:21.500Z,1.80
2017-09-02T10:47:56.331Z,2.35
2017-09-02T10:48:29.968Z,1.60
2017-09-02T10:49:02.512Z,1.95
2017-09-02T10:49:35.347Z,1.92
2017-09-02T10:50:09.700Z,1.80
2017-09-02T10:50:43.145Z,3.10
2017-09-02T10:51:17.170Z,2.17
2017-09-02T10:51:50.902Z,1.80
2017-09-02T10:52:24.403Z,1.52
2017-09-02T10:52:56.946Z,1.70
2017-09-02T10:53:29.462Z,1.85
2017-09-02T10:54:03.139Z,1.83
2017-09-02T10:54:35.643Z,1.65
2017-09-02T10:55:08.195Z,1.73
2017-09-02T11:05:26.986Z,2.47
2017-09-02T11:05:59.675Z,1.55
2017-09-02T11:06:32.208Z,1.70
2017-09-02T11:07:05.630Z,1.50
2017-09-02T11:07:38.540Z,1.35
2017-09-02T11:08:11.392Z,1.75
2017-09-02T11:21:45.220Z,1.80
2017-09-02T11:35:20.383Z,1.45
2017-09-02T11:48:53.554Z,1.67
2017-09-02T12:02:27.264Z,1.55
2017-09-02T12:03:00.478Z,1.42
2017-09-02T12:03:33.852Z,1.60
2017-09-02T12:04:06.769Z,1.35
2017-09-02T12:04:39.642Z,1.48
2017-09-02T12:05:13.369Z,1.73
2017-09-02T12:05:46.140Z,1.62
2017-09-02T12:06:19.014Z,1.45
2017-09-02T12:06:51.643Z,1.25
2017-09-02T12:07:24.517Z,2.03
2017-09-02T12:07:57.064Z,1.73